Time;durP1;ratioP1;P1;durP2;ratioP2;P2;SDS_P1;SDS_P2;PMS_P1;PMS_P2;Temp;Humidity;BMP_temperature;BMP_pressure;BME280_temperature;BME280_humidity;BME280_pressure;Samples;Min_cycle;Max_cycle;Signal;HPM_P1;HPM_P2
2022/05/18 00:00:27;;;;;;;6.72;5.38;;;20.50;89.90;;;;;;5033074;28;101044;-72
2022/05/18 00:03:04;;;;;;;6.28;4.75;;;20.50;90.00;;;;;;5033652;28;98549;-72
2022/05/18 00:05:33;;;;;;;8.00;4.80;;;20.40;90.10;;;;;;5034466;28;99215;-72
2022/05/18 00:08:00;;;;;;;6.68;6.05;;;20.30;90.20;;;;;;5034351;28;99342;-72
2022/05/18 00:10:27;;;;;;;7.40;5.97;;;20.30;90.30;;;;;;5034449;28;99057;-72
2022/05/18 00:12:55;;;;;;;6.10;5.50;;;20.20;90.40;;;;;;5016895;28;98493;-72
2022/05/18 00:15:24;;;;;;;5.30;4.80;;;20.20;90.60;;;;;;5033842;28;99084;-72
2022/05/18 00:17:52;;;;;;;7.93;5.22;;;20.20;90.70;;;;;;5032636;27;101922;-72
2022/05/18 00:20:20;;;;;;;8.70;5.85;;;20.10;90.80;;;;;;5032173;28;101660;-72
2022/05/18 00:22:53;;;;;;;6.07;5.47;;;20.00;90.90;;;;;;5034175;28;97771;-72
2022/05/18 00:25:22;;;;;;;6.78;6.20;;;20.00;91.10;;;;;;5033123;28;98751;-72
2022/05/18 00:27:50;;;;;;;6.85;4.88;;;19.90;91.20;;;;;;5032879;28;100418;-72
2022/05/18 00:30:19;;;;;;;6.80;6.32;;;19.90;91.40;;;;;;5015780;28;101738;-72
2022/05/18 00:32:46;;;;;;;5.93;5.40;;;19.90;91.40;;;;;;5033404;28;98558;-72
2022/05/18 00:35:14;;;;;;;6.13;5.13;;;19.90;91.50;;;;;;5034938;28;98904;-72
2022/05/18 00:37:41;;;;;;;7.03;5.75;;;19.80;91.50;;;;;;5032720;28;99836;-72
2022/05/18 00:40:11;;;;;;;6.05;5.45;;;19.80;91.60;;;;;;5032919;28;98978;-72
2022/05/18 00:42:38;;;;;;;7.03;6.38;;;19.80;91.60;;;;;;5034288;28;98525;-72
2022/05/18 00:45:06;;;;;;;6.90;5.20;;;19.70;91.70;;;;;;5032865;28;98596;-72
2022/05/18 00:47:34;;;;;;;7.13;6.22;;;19.70;91.80;;;;;;5015814;28;99616;-72
2022/05/18 00:50:09;;;;;;;6.13;5.53;;;19.60;91.90;;;;;;5034156;28;98537;-73
2022/05/18 00:52:45;;;;;;;6.90;6.15;;;19.70;92.00;;;;;;5032949;28;98476;-72
2022/05/18 00:55:16;;;;;;;7.13;6.22;;;19.60;92.10;;;;;;5032437;28;99221;-72
2022/05/18 00:57:50;;;;;;;8.20;5.57;;;19.50;92.20;;;;;;5032652;28;99293;-72
2022/05/18 01:00:19;;;;;;;7.95;6.13;;;19.50;92.30;;;;;;5034163;28;98756;-72
2022/05/18 01:02:53;;;;;;;6.35;5.18;;;19.40;92.30;;;;;;5034317;28;98489;-72
2022/05/18 01:05:26;;;;;;;6.70;6.00;;;19.40;92.40;;;;;;5032954;28;98549;-72
2022/05/18 01:07:57;;;;;;;8.23;7.43;;;19.40;92.40;;;;;;5032621;28;99787;-72
2022/05/18 01:10:24;;;;;;;6.43;5.75;;;19.30;92.40;;;;;;5034030;28;98968;-72
2022/05/18 01:12:51;;;;;;;8.55;6.97;;;19.30;92.60;;;;;;5034285;28;97806;-72
2022/05/18 01:15:32;;;;;;;6.80;5.70;;;19.20;92.80;;;;;;5032553;28;98543;-72
2022/05/18 01:18:13;;;;;;;11.05;7.30;;;19.20;92.60;;;;;;5033721;28;100824;-72
2022/05/18 01:20:43;;;;;;;7.88;6.93;;;19.20;92.70;;;;;;5032916;28;99216;-72
2022/05/18 01:23:39;;;;;;;7.53;6.68;;;19.20;92.70;;;;;;5020570;28;98511;-72
2022/05/18 01:26:11;;;;;;;6.47;5.88;;;19.20;92.90;;;;;;5028691;28;98580;-72
2022/05/18 01:28:53;;;;;;;7.15;6.47;;;19.10;93.00;;;;;;5028513;28;101838;-72
2022/05/18 01:31:41;;;;;;;7.15;5.88;;;19.10;93.00;;;;;;5013035;28;99383;-72
2022/05/18 01:34:08;;;;;;;6.97;6.30;;;19.10;93.00;;;;;;5029345;28;98534;-72
2022/05/18 01:36:35;;;;;;;8.57;7.00;;;18.90;93.20;;;;;;5028715;28;98648;-72
2022/05/18 01:39:03;;;;;;;8.27;5.93;;;18.90;93.20;;;;;;5012031;28;101437;-72
2022/05/18 01:41:33;;;;;;;7.75;6.85;;;18.90;93.30;;;;;;5013084;28;98590;-72
2022/05/18 01:44:01;;;;;;;7.78;6.43;;;18.90;93.30;;;;;;5029087;28;98533;-72
2022/05/18 01:46:31;;;;;;;6.38;5.75;;;18.90;93.30;;;;;;5013064;28;99306;-72
2022/05/18 01:48:58;;;;;;;7.18;6.35;;;18.80;93.30;;;;;;5028053;28;99419;-72
2022/05/18 01:51:33;;;;;;;7.75;6.93;;;18.80;93.20;;;;;;5013059;28;100098;-72
2022/05/18 01:54:00;;;;;;;8.90;6.43;;;18.80;93.30;;;;;;5013610;28;98407;-72
2022/05/18 01:56:27;;;;;;;8.52;6.32;;;18.80;93.30;;;;;;5028550;28;98571;-72
2022/05/18 01:58:54;;;;;;;9.15;8.18;;;18.80;93.30;;;;;;5028326;28;101886;-72
2022/05/18 02:01:21;;;;;;;7.07;6.43;;;18.70;93.30;;;;;;5028362;28;98966;-72
2022/05/18 02:03:49;;;;;;;8.35;6.85;;;18.70;93.40;;;;;;5028672;28;98430;-72
2022/05/18 02:06:16;;;;;;;8.85;6.07;;;18.70;93.40;;;;;;5013096;28;98534;-72
2022/05/18 02:08:44;;;;;;;7.38;6.68;;;18.70;93.40;;;;;;5012532;28;99319;-72
2022/05/18 02:11:16;;;;;;;7.05;6.40;;;18.70;93.50;;;;;;5027934;28;101703;-72
2022/05/18 02:13:43;;;;;;;8.52;6.30;;;18.70;93.50;;;;;;5028272;28;98540;-72
2022/05/18 02:16:11;;;;;;;8.18;5.93;;;18.60;93.60;;;;;;5028612;28;98987;-72
2022/05/18 02:18:38;;;;;;;7.38;6.50;;;18.60;93.60;;;;;;5027786;28;101707;-72
2022/05/18 02:21:08;;;;;;;6.90;6.00;;;18.60;93.90;;;;;;5012473;28;99125;-72
2022/05/18 02:23:36;;;;;;;6.88;6.18;;;18.50;93.70;;;;;;5028454;28;98601;-72
2022/05/18 02:26:10;;;;;;;6.55;5.65;;;18.60;93.70;;;;;;5027926;28;98509;-72
2022/05/18 02:28:37;;;;;;;6.72;6.05;;;18.50;93.60;;;;;;5012751;28;98687;-72
2022/05/18 02:31:04;;;;;;;9.68;7.45;;;18.50;93.70;;;;;;5028125;28;98577;-72
2022/05/18 02:33:31;;;;;;;8.73;6.57;;;18.50;93.80;;;;;;5012527;28;98467;-72
2022/05/18 02:35:58;;;;;;;6.20;5.60;;;18.50;93.80;;;;;;5012307;28;100073;-72
2022/05/18 02:38:25;;;;;;;6.32;5.72;;;18.40;93.80;;;;;;5027250;28;112856;-72
2022/05/18 02:40:55;;;;;;;7.47;5.90;;;18.40;93.80;;;;;;5027439;28;99114;-72
2022/05/18 02:43:22;;;;;;;7.78;6.03;;;18.40;93.80;;;;;;5012362;28;98525;-72
2022/05/18 02:45:49;;;;;;;6.80;5.75;;;18.40;93.80;;;;;;5012444;28;98565;-72
2022/05/18 02:48:16;;;;;;;7.72;5.88;;;18.40;93.90;;;;;;5027595;28;99398;-72
2022/05/18 02:50:47;;;;;;;7.30;6.57;;;18.30;94.00;;;;;;5027579;28;101217;-72
2022/05/18 02:53:14;;;;;;;6.55;5.60;;;18.40;94.00;;;;;;5027512;28;97784;-72
2022/05/18 02:58:26;;;;;;;11.07;6.75;;;18.30;94.00;;;;;;5012010;28;99330;-72
2022/05/18 03:00:53;;;;;;;10.80;6.18;;;18.30;94.10;;;;;;5027236;28;99463;-72
2022/05/18 03:03:20;;;;;;;9.85;6.20;;;18.30;94.10;;;;;;5012195;28;98506;-72
2022/05/18 03:05:47;;;;;;;8.75;6.05;;;18.30;94.00;;;;;;5010394;28;98753;-72
2022/05/18 03:08:14;;;;;;;6.15;5.65;;;18.30;94.10;;;;;;5011998;28;99343;-72
2022/05/18 03:10:41;;;;;;;6.93;6.10;;;18.30;94.10;;;;;;5027614;28;98963;-72
2022/05/18 03:13:08;;;;;;;6.78;5.95;;;18.20;94.10;;;;;;5012177;28;98469;-72
2022/05/18 03:15:35;;;;;;;7.03;6.35;;;18.20;94.10;;;;;;5010733;28;98594;-72
2022/05/18 03:18:02;;;;;;;7.50;5.93;;;18.20;94.20;;;;;;5011966;28;98750;-72
2022/05/18 03:23:33;;;;;;;8.27;5.97;;;18.20;94.30;;;;;;5012160;28;98509;-72
2022/05/18 03:26:02;;;;;;;7.35;6.60;;;18.10;94.20;;;;;;5012546;28;99383;-73
2022/05/18 03:28:29;;;;;;;7.28;6.50;;;18.10;94.30;;;;;;5010000;28;101832;-73
2022/05/18 03:30:56;;;;;;;8.52;6.57;;;18.10;94.30;;;;;;4993682;28;100136;-73
2022/05/18 03:33:24;;;;;;;8.75;6.45;;;18.10;94.30;;;;;;5010269;28;107516;-73
2022/05/18 03:35:52;;;;;;;7.13;6.40;;;18.10;94.40;;;;;;5011763;28;98554;-73
2022/05/18 03:38:20;;;;;;;6.68;5.78;;;18.10;94.40;;;;;;5011531;28;99271;-73
2022/05/18 03:40:47;;;;;;;8.10;6.65;;;18.10;94.40;;;;;;5010144;28;99073;-73
2022/05/18 03:43:15;;;;;;;10.77;6.82;;;18.00;94.50;;;;;;5012529;28;97819;-73
2022/05/18 03:45:42;;;;;;;7.22;6.20;;;18.00;94.60;;;;;;5010545;28;98545;-73
2022/05/18 03:48:11;;;;;;;7.63;6.82;;;18.00;94.60;;;;;;5009864;28;100391;-73
2022/05/18 03:50:40;;;;;;;6.03;5.35;;;18.00;94.60;;;;;;5010881;28;99233;-73
2022/05/18 03:53:08;;;;;;;6.75;5.50;;;18.00;94.70;;;;;;5011269;28;98592;-73
2022/05/18 03:55:38;;;;;;;9.65;5.78;;;18.00;94.70;;;;;;5014157;28;98597;-73
2022/05/18 03:58:05;;;;;;;7.25;6.50;;;18.10;94.60;;;;;;5013249;28;100274;-73
2022/05/18 04:00:33;;;;;;;10.75;7.65;;;18.10;94.60;;;;;;5030365;28;99049;-73
2022/05/18 04:03:02;;;;;;;8.13;6.55;;;18.10;94.60;;;;;;5013631;28;98534;-73
2022/05/18 04:05:30;;;;;;;7.05;6.05;;;18.20;94.40;;;;;;5013834;28;98604;-73
2022/05/18 04:07:57;;;;;;;7.75;6.50;;;18.20;94.30;;;;;;4997120;28;101101;-73
2022/05/18 04:10:24;;;;;;;7.97;6.22;;;18.20;94.30;;;;;;5014722;28;98439;-73
2022/05/18 04:12:51;;;;;;;7.70;6.85;;;18.30;94.20;;;;;;5013500;28;98576;-73
2022/05/18 04:15:18;;;;;;;7.47;5.85;;;18.40;94.10;;;;;;5014717;28;99254;-73
2022/05/18 04:17:48;;;;;;;7.72;6.18;;;18.40;94.00;;;;;;5013050;28;102055;-73
2022/05/18 04:20:18;;;;;;;7.82;7.13;;;18.50;93.90;;;;;;5014201;28;99040;-73
2022/05/18 04:22:46;;;;;;;7.65;6.13;;;18.50;93.90;;;;;;5013614;28;98502;-73
2022/05/18 04:25:17;;;;;;;6.97;6.25;;;18.50;93.80;;;;;;5020073;28;98712;-73
2022/05/18 04:27:47;;;;;;;6.15;5.65;;;18.60;93.80;;;;;;5034595;28;99349;-73
2022/05/18 04:30:16;;;;;;;7.43;6.55;;;18.60;93.70;;;;;;5033782;28;99204;-73
2022/05/18 04:32:43;;;;;;;9.88;7.72;;;18.60;93.70;;;;;;5033650;28;97863;-73
2022/05/18 04:35:12;;;;;;;8.05;6.90;;;18.70;93.70;;;;;;5033042;28;98665;-73
2022/05/18 04:37:39;;;;;;;8.90;6.50;;;18.70;93.70;;;;;;5016081;28;104760;-73
2022/05/18 04:40:08;;;;;;;7.57;6.80;;;18.70;93.70;;;;;;5033742;28;99168;-73
2022/05/18 04:42:35;;;;;;;8.05;6.40;;;18.80;93.50;;;;;;5016687;28;98678;-73
2022/05/18 04:45:05;;;;;;;6.57;5.90;;;18.80;93.50;;;;;;5032968;28;98635;-73
2022/05/18 04:47:31;;;;;;;6.47;5.80;;;18.80;93.50;;;;;;5016016;28;101958;-73
2022/05/18 04:49:59;;;;;;;7.82;6.63;;;18.80;93.40;;;;;;5015924;28;99131;-73
2022/05/18 04:52:26;;;;;;;8.07;7.25;;;18.80;93.60;;;;;;5034556;28;98616;-73
2022/05/18 04:54:53;;;;;;;7.55;6.63;;;18.90;93.40;;;;;;5016178;28;99000;-73
2022/05/18 04:57:21;;;;;;;8.73;7.80;;;18.90;93.40;;;;;;4999572;28;101036;-73
2022/05/18 04:59:48;;;;;;;7.60;6.60;;;19.00;93.30;;;;;;5016174;28;98693;-73
2022/05/18 05:02:15;;;;;;;9.55;5.85;;;19.00;93.20;;;;;;5015874;28;98607;-73
2022/05/18 05:04:43;;;;;;;8.63;6.00;;;19.10;93.10;;;;;;5031633;28;99265;-73
2022/05/18 05:07:10;;;;;;;7.63;7.00;;;19.10;93.00;;;;;;5015786;28;99340;-73
2022/05/18 05:09:37;;;;;;;8.13;6.40;;;19.20;93.00;;;;;;4999128;28;99170;-73
2022/05/18 05:12:06;;;;;;;8.52;7.63;;;19.20;92.90;;;;;;5033966;28;98534;-73
2022/05/18 05:14:37;;;;;;;8.02;7.25;;;19.30;92.80;;;;;;5016071;28;98544;-73
2022/05/18 05:17:05;;;;;;;8.70;7.03;;;19.40;92.70;;;;;;5031997;28;101809;-73
2022/05/18 05:19:32;;;;;;;10.00;8.45;;;19.40;92.60;;;;;;4999297;28;101757;-73
2022/05/18 05:21:59;;;;;;;10.27;7.10;;;19.50;92.60;;;;;;5032732;28;97836;-73
2022/05/18 05:24:26;;;;;;;9.38;7.00;;;19.60;92.40;;;;;;4998978;28;98526;-73
2022/05/18 05:26:53;;;;;;;7.80;6.63;;;19.70;92.30;;;;;;5015693;28;99806;-73
2022/05/18 05:29:20;;;;;;;10.50;8.80;;;19.70;92.20;;;;;;5015034;28;101712;-73
2022/05/18 05:31:47;;;;;;;9.00;8.10;;;19.90;92.20;;;;;;5015675;28;98687;-73
2022/05/18 05:34:15;;;;;;;9.07;7.75;;;20.10;91.90;;;;;;5015426;28;102688;-73
2022/05/18 05:36:42;;;;;;;9.38;8.57;;;20.30;91.60;;;;;;5015332;28;99502;-73
2022/05/18 05:39:09;;;;;;;8.45;6.85;;;20.50;91.20;;;;;;5033286;28;101405;-73
2022/05/18 05:41:36;;;;;;;8.75;7.35;;;20.70;91.00;;;;;;5033788;28;98496;-73
2022/05/18 05:44:03;;;;;;;8.05;7.35;;;21.00;91.00;;;;;;4999232;28;98580;-73
2022/05/18 05:46:30;;;;;;;10.07;9.23;;;21.30;90.30;;;;;;5015894;28;98451;-73
2022/05/18 05:48:57;;;;;;;10.30;8.80;;;21.40;90.00;;;;;;5032986;28;98510;-73
2022/05/18 05:51:24;;;;;;;9.68;8.73;;;21.60;89.40;;;;;;5032010;28;98541;-74
2022/05/18 05:53:52;;;;;;;8.30;7.25;;;21.80;89.10;;;;;;5014944;28;99343;-73
2022/05/18 05:56:20;;;;;;;9.35;8.55;;;21.80;88.20;;;;;;5031263;28;102046;-73
2022/05/18 05:58:48;;;;;;;9.23;7.68;;;21.90;88.30;;;;;;5032910;28;98904;-73
2022/05/18 06:01:16;;;;;;;10.38;9.38;;;21.80;87.70;;;;;;5015184;28;98554;-73
2022/05/18 06:03:44;;;;;;;9.38;8.48;;;21.80;88.10;;;;;;5033333;28;98484;-73
2022/05/18 06:06:11;;;;;;;9.43;8.43;;;21.80;88.10;;;;;;5032675;28;99370;-73
2022/05/18 06:08:38;;;;;;;10.32;9.43;;;21.80;88.00;;;;;;5014767;28;101944;-73
2022/05/18 06:11:08;;;;;;;11.00;8.98;;;21.90;88.00;;;;;;5015506;28;97955;-73
2022/05/18 06:13:35;;;;;;;11.43;9.25;;;21.80;87.30;;;;;;5014690;28;98630;-73
2022/05/18 06:16:03;;;;;;;10.85;9.50;;;21.80;87.50;;;;;;5032736;28;99380;-73
2022/05/18 06:18:30;;;;;;;11.15;10.20;;;21.90;87.60;;;;;;5032249;28;99566;-73
2022/05/18 06:20:58;;;;;;;9.38;8.43;;;21.90;87.60;;;;;;5032576;28;98613;-73
2022/05/18 06:23:26;;;;;;;8.77;7.88;;;21.90;87.60;;;;;;4997882;28;101151;-73
2022/05/18 06:26:00;;;;;;;11.02;9.93;;;21.80;87.60;;;;;;5030872;28;101399;-73
2022/05/18 06:28:28;;;;;;;10.25;9.27;;;21.90;87.90;;;;;;5032523;28;99070;-73
2022/05/18 06:30:54;;;;;;;11.20;10.18;;;22.00;87.70;;;;;;5015100;28;98645;-73
2022/05/18 06:33:21;;;;;;;11.38;9.65;;;22.10;87.20;;;;;;5032002;28;98592;-73
2022/05/18 06:35:51;;;;;;;10.63;9.63;;;22.20;86.80;;;;;;5014870;28;101219;-73
2022/05/18 06:38:19;;;;;;;10.88;9.95;;;22.30;86.70;;;;;;5032418;28;98552;-73
2022/05/18 06:43:32;;;;;;;11.52;10.38;;;22.30;86.20;;;;;;5032349;28;99247;-73
2022/05/18 06:46:01;;;;;;;12.30;11.20;;;22.40;86.50;;;;;;5032184;28;99692;-73
2022/05/18 06:48:29;;;;;;;12.18;9.60;;;22.30;86.70;;;;;;5031723;28;99001;-73
2022/05/18 06:51:12;;;;;;;12.00;10.95;;;22.30;87.00;;;;;;5031062;28;98580;-73
2022/05/18 06:53:39;;;;;;;11.27;10.25;;;22.30;86.90;;;;;;5032165;28;98553;-73
2022/05/18 06:56:06;;;;;;;11.00;10.05;;;22.30;86.70;;;;;;5031696;28;99415;-73
2022/05/18 06:58:33;;;;;;;12.40;11.10;;;22.40;86.70;;;;;;5031429;28;99045;-73
2022/05/18 07:01:01;;;;;;;12.60;11.32;;;22.50;86.70;;;;;;5014390;28;97839;-72
2022/05/18 07:03:29;;;;;;;12.25;10.00;;;22.50;86.60;;;;;;5013637;28;98571;-73
2022/05/18 07:05:56;;;;;;;12.85;10.65;;;22.60;86.80;;;;;;5031884;28;99275;-73
2022/05/18 07:08:23;;;;;;;13.43;11.07;;;22.60;86.60;;;;;;5030938;28;99171;-73
2022/05/18 07:10:50;;;;;;;12.65;10.35;;;22.60;86.50;;;;;;5013359;28;98519;-73
2022/05/18 07:13:18;;;;;;;11.15;10.07;;;22.70;86.30;;;;;;5031723;28;98491;-73
2022/05/18 07:15:46;;;;;;;12.30;11.02;;;22.80;86.50;;;;;;5013346;28;101760;-73
2022/05/18 07:18:13;;;;;;;12.05;10.85;;;22.80;86.20;;;;;;5030094;28;99491;-73
2022/05/18 07:20:41;;;;;;;14.68;11.30;;;22.90;86.00;;;;;;5013357;28;100403;-73
2022/05/18 07:23:09;;;;;;;11.65;10.55;;;22.90;85.90;;;;;;5013321;28;98879;-73
2022/05/18 07:25:36;;;;;;;11.60;10.43;;;23.00;85.70;;;;;;4993005;28;101273;-73
2022/05/18 07:28:03;;;;;;;12.13;10.93;;;23.10;85.60;;;;;;4994351;28;98648;-73
2022/05/18 07:30:52;;;;;;;12.85;11.65;;;23.20;85.30;;;;;;5015324;28;98966;-73
2022/05/18 07:33:20;;;;;;;12.82;10.77;;;23.30;85.20;;;;;;5014634;28;99239;-73
2022/05/18 07:35:49;;;;;;;11.45;10.35;;;23.40;84.80;;;;;;5014356;28;99338;-73
2022/05/18 07:38:18;;;;;;;11.63;10.45;;;23.40;84.60;;;;;;5013140;28;101944;-73
2022/05/18 07:41:03;;;;;;;13.00;11.80;;;23.30;84.50;;;;;;5016204;28;98617;-73
2022/05/18 07:43:30;;;;;;;13.10;10.68;;;23.40;84.60;;;;;;5013170;28;98602;-73
2022/05/18 07:45:57;;;;;;;13.48;12.27;;;23.50;84.30;;;;;;5013167;28;104638;-73
2022/05/18 07:48:25;;;;;;;10.90;9.80;;;23.60;84.40;;;;;;5029258;28;101772;-73
2022/05/18 07:50:52;;;;;;;12.15;10.13;;;23.70;83.80;;;;;;5015486;28;97810;-73
2022/05/18 07:53:20;;;;;;;12.40;10.45;;;23.90;83.30;;;;;;5014636;28;98619;-73
2022/05/18 07:55:47;;;;;;;14.82;10.15;;;24.20;82.70;;;;;;5014378;28;99323;-73
2022/05/18 07:58:17;;;;;;;10.98;9.82;;;24.50;82.40;;;;;;5012794;28;99207;-73
2022/05/18 08:00:45;;;;;;;11.25;10.10;;;25.10;81.50;;;;;;5013590;28;98705;-73
2022/05/18 08:03:12;;;;;;;9.50;8.57;;;26.10;78.90;;;;;;5014592;28;98570;-73
2022/05/18 08:05:41;;;;;;;9.18;7.75;;;27.20;75.30;;;;;;5013310;28;99224;-73
2022/05/18 08:08:12;;;;;;;8.88;8.07;;;28.10;72.60;;;;;;5014685;28;98900;-73
2022/05/18 08:16:12;;;;;;;9.85;8.85;;;30.60;64.60;;;;;;5015054;28;98507;-74
2022/05/18 08:18:40;;;;;;;7.95;7.03;;;31.70;62.40;;;;;;5013062;28;100243;-74
2022/05/18 08:21:07;;;;;;;8.23;7.43;;;32.50;58.40;;;;;;5013681;28;98656;-74
2022/05/18 08:23:34;;;;;;;10.38;9.20;;;33.20;56.70;;;;;;5012445;28;107293;-74
2022/05/18 08:26:03;;;;;;;9.00;8.30;;;34.00;54.70;;;;;;5026001;28;99422;-74
2022/05/18 08:28:31;;;;;;;7.93;7.22;;;34.80;52.80;;;;;;5032826;28;101869;-74
2022/05/18 08:30:58;;;;;;;7.63;6.93;;;35.50;50.60;;;;;;5016941;28;98655;-74
2022/05/18 08:33:28;;;;;;;7.80;6.95;;;36.00;49.00;;;;;;5016243;28;98627;-74
2022/05/18 08:35:55;;;;;;;8.60;7.78;;;36.40;47.00;;;;;;5016666;28;99433;-74
2022/05/18 08:38:22;;;;;;;7.43;6.70;;;36.50;45.00;;;;;;5034089;28;98897;-74
2022/05/18 08:41:27;;;;;;;7.38;6.70;;;36.50;44.70;;;;;;5015667;28;98245;-74
2022/05/18 08:44:03;;;;;;;7.43;6.35;;;36.80;43.90;;;;;;4979544;28;98671;-74
2022/05/18 08:46:49;;;;;;;5.68;5.10;;;36.90;43.10;;;;;;5032644;28;102002;-74
2022/05/18 08:49:30;;;;;;;6.05;5.28;;;37.00;41.20;;;;;;5033884;28;99191;-75
2022/05/18 08:52:26;;;;;;;7.88;6.50;;;36.90;42.10;;;;;;5034735;28;98829;-74
2022/05/18 08:55:31;;;;;;;7.07;6.55;;;37.10;40.80;;;;;;5034362;28;99039;-74
2022/05/18 08:57:59;;;;;;;5.68;5.15;;;36.90;40.30;;;;;;5032692;28;99326;-74
2022/05/18 09:00:41;;;;;;;7.25;5.82;;;36.50;41.10;;;;;;5015556;28;99023;-74
2022/05/18 09:03:25;;;;;;;5.90;5.40;;;36.30;41.70;;;;;;5034366;28;98544;-74
2022/05/18 09:06:03;;;;;;;6.65;6.15;;;35.90;41.70;;;;;;5033182;28;99021;-74
2022/05/18 09:08:35;;;;;;;6.07;5.43;;;35.40;42.60;;;;;;5034233;28;98515;-74
2022/05/18 09:11:07;;;;;;;7.27;6.67;;;34.80;43.70;;;;;;5033918;28;98854;-74
2022/05/18 09:13:38;;;;;;;6.88;6.18;;;34.20;44.40;;;;;;5034011;28;98522;-74
2022/05/18 09:16:23;;;;;;;5.32;4.50;;;33.70;45.60;;;;;;5033962;28;99664;-73
2022/05/18 09:19:02;;;;;;;6.97;5.25;;;33.20;46.50;;;;;;5031995;28;102291;-73
2022/05/18 09:21:50;;;;;;;6.85;5.07;;;32.80;48.00;;;;;;5033564;28;99176;-74
2022/05/18 09:24:37;;;;;;;4.97;4.57;;;32.50;49.20;;;;;;5034209;28;98959;-74
2022/05/18 09:27:09;;;;;;;9.30;5.93;;;32.20;50.10;;;;;;5015477;28;98622;-73
2022/05/18 09:29:51;;;;;;;6.80;4.88;;;31.90;50.90;;;;;;5033340;28;99300;-73
2022/05/18 09:32:28;;;;;;;6.25;4.88;;;31.80;51.30;;;;;;5016130;28;99427;-73
2022/05/18 09:35:16;;;;;;;6.53;4.88;;;31.60;51.60;;;;;;5015868;28;97896;-73
2022/05/18 09:37:51;;;;;;;6.07;5.30;;;31.40;52.30;;;;;;5015528;28;98568;-73
2022/05/18 09:40:37;;;;;;;6.72;5.78;;;31.00;53.20;;;;;;5032118;28;99247;-73
2022/05/18 09:43:10;;;;;;;9.32;6.22;;;30.90;54.40;;;;;;5032755;28;99384;-73
2022/05/18 09:45:41;;;;;;;10.93;6.05;;;30.70;54.30;;;;;;5015768;28;98548;-73
2022/05/18 09:48:15;;;;;;;8.77;5.22;;;30.80;55.00;;;;;;5016205;28;98655;-73
2022/05/18 09:50:47;;;;;;;5.97;5.38;;;30.80;55.80;;;;;;5032749;28;99182;-74
2022/05/18 09:53:15;;;;;;;7.55;6.18;;;30.80;55.40;;;;;;5033364;28;99087;-73
2022/05/18 09:55:46;;;;;;;6.43;5.28;;;30.80;55.10;;;;;;5031952;28;99456;-73
2022/05/18 09:58:19;;;;;;;6.13;5.63;;;30.70;54.80;;;;;;5033940;28;98928;-73
2022/05/18 10:00:46;;;;;;;7.90;6.97;;;30.70;55.00;;;;;;5033176;28;98754;-73
2022/05/18 10:08:58;;;;;;;7.43;6.68;;;30.70;55.30;;;;;;5032860;28;99289;-73
2022/05/18 10:11:33;;;;;;;6.78;6.18;;;30.60;55.60;;;;;;5014896;28;99333;-73
2022/05/18 10:14:13;;;;;;;8.43;6.53;;;30.70;55.20;;;;;;5014624;28;99060;-73
2022/05/18 10:16:48;;;;;;;7.20;6.60;;;30.60;55.40;;;;;;5033232;28;98425;-73
2022/05/18 10:19:25;;;;;;;7.43;6.80;;;30.60;55.70;;;;;;5032302;28;99315;-73
2022/05/18 10:21:56;;;;;;;5.88;5.28;;;30.60;55.40;;;;;;5032636;28;99710;-73
2022/05/18 10:24:40;;;;;;;7.43;6.20;;;30.70;55.30;;;;;;5032978;28;99005;-73
2022/05/18 10:27:16;;;;;;;7.75;4.85;;;30.70;55.20;;;;;;5028448;28;98258;-73
2022/05/18 10:30:04;;;;;;;6.32;5.72;;;30.60;55.10;;;;;;5013018;28;98570;-73
2022/05/18 10:32:32;;;;;;;5.90;5.40;;;30.60;55.10;;;;;;5012480;28;99266;-73
2022/05/18 10:35:00;;;;;;;5.03;4.53;;;30.60;54.70;;;;;;5010742;28;99538;-73
2022/05/18 10:37:34;;;;;;;5.95;4.18;;;30.70;54.80;;;;;;5011363;28;98539;-73
2022/05/18 10:40:03;;;;;;;;;;;30.80;54.70;;;;;;5013388;28;98623;-73
2022/05/18 10:42:50;;;;;;;6.03;5.43;;;30.70;54.90;;;;;;5013628;28;99323;-73
2022/05/18 10:45:26;;;;;;;8.80;6.75;;;30.90;55.60;;;;;;5012746;28;99063;-73
2022/05/18 10:48:04;;;;;;;8.38;7.78;;;30.90;56.10;;;;;;5012430;28;99348;-73
2022/05/18 10:50:37;;;;;;;5.20;4.80;;;31.00;55.50;;;;;;5012767;28;98553;-74
2022/05/18 10:53:12;;;;;;;6.68;4.50;;;31.10;54.90;;;;;;5003415;28;98508;-75
2022/05/18 10:56:03;;;;;;;8.25;5.80;;;31.20;54.40;;;;;;5012170;28;98474;-74
2022/05/18 10:58:43;;;;;;;7.30;5.25;;;31.30;53.90;;;;;;5011441;28;98487;-74
2022/05/18 11:01:29;;;;;;;9.00;8.30;;;31.40;54.40;;;;;;5009873;28;99338;-74
2022/05/18 11:04:19;;;;;;;5.75;5.10;;;31.30;54.30;;;;;;5014301;28;99437;-74
2022/05/18 11:06:46;;;;;;;6.22;5.68;;;31.40;55.40;;;;;;5014175;28;102062;-74
2022/05/18 11:09:28;;;;;;;6.90;4.50;;;31.40;54.80;;;;;;5016125;28;98461;-74
2022/05/18 11:12:21;;;;;;;6.75;6.13;;;31.60;53.60;;;;;;5031400;28;98840;-75
2022/05/18 11:15:07;;;;;;;5.22;4.82;;;31.70;53.40;;;;;;5015555;28;99358;-74
2022/05/18 11:18:05;;;;;;;5.45;5.05;;;31.80;52.70;;;;;;5015500;28;98992;-74
2022/05/18 11:20:59;;;;;;;5.28;4.70;;;31.70;52.20;;;;;;5016514;28;97676;-75
2022/05/18 11:23:49;;;;;;;9.20;6.30;;;31.80;53.20;;;;;;5030985;28;98558;-74
2022/05/18 11:26:38;;;;;;;6.85;6.25;;;31.90;52.60;;;;;;5030618;28;99293;-74
2022/05/18 11:29:24;;;;;;;6.60;6.00;;;32.00;52.80;;;;;;5015287;28;99576;-74
2022/05/18 11:32:27;;;;;;;8.13;7.33;;;32.00;52.10;;;;;;5031043;28;98485;-75
2022/05/18 11:35:21;;;;;;;7.13;6.53;;;32.10;52.00;;;;;;5015730;28;98546;-75
2022/05/18 11:37:51;;;;;;;8.65;6.40;;;32.10;52.60;;;;;;5014790;28;99255;-75
2022/05/18 11:40:22;;;;;;;12.93;6.45;;;31.90;52.70;;;;;;5015220;28;98943;-75
2022/05/18 11:43:02;;;;;;;5.97;5.38;;;32.00;52.70;;;;;;5015655;28;98546;-74
2022/05/18 11:45:47;;;;;;;9.95;5.68;;;32.10;51.90;;;;;;5015678;28;98423;-74
2022/05/18 11:48:31;;;;;;;5.22;4.72;;;32.30;52.00;;;;;;5015600;28;98540;-74
2022/05/18 11:51:23;;;;;;;6.63;6.03;;;32.40;50.90;;;;;;5014966;28;98569;-75
2022/05/18 11:53:55;;;;;;;5.90;5.22;;;32.40;50.30;;;;;;5015521;28;98607;-74
2022/05/18 11:56:22;;;;;;;;;;;32.30;50.90;;;;;;5013955;28;99269;-74
2022/05/18 11:59:10;;;;;;;7.85;5.78;;;32.20;51.40;;;;;;5016207;28;99109;-75
2022/05/18 12:01:50;;;;;;;7.07;6.60;;;32.40;51.40;;;;;;5015184;28;99181;-74
2022/05/18 12:04:59;;;;;;;6.97;6.28;;;32.50;51.50;;;;;;5015697;28;98763;-74
2022/05/18 12:07:57;;;;;;;8.20;7.10;;;32.70;51.80;;;;;;5006953;28;98692;-75
2022/05/18 12:10:39;;;;;;;8.73;5.85;;;32.80;51.10;;;;;;5014945;28;99411;-74
2022/05/18 12:13:24;;;;;;;10.60;5.77;;;33.10;51.00;;;;;;5029897;28;101591;-75
2022/05/18 12:16:06;;;;;;;7.45;6.72;;;33.60;50.00;;;;;;5015435;28;97656;-75
2022/05/18 12:19:04;;;;;;;7.35;6.55;;;33.80;49.40;;;;;;5015274;28;98612;-75
2022/05/18 12:21:41;;;;;;;7.35;6.50;;;34.00;48.00;;;;;;5013026;28;101054;-75
2022/05/18 12:24:10;;;;;;;8.63;6.18;;;33.80;48.50;;;;;;5014294;28;99242;-75
2022/05/18 12:26:45;;;;;;;8.88;7.97;;;33.80;49.00;;;;;;5029468;28;98489;-75
2022/05/18 12:29:18;;;;;;;8.07;6.68;;;34.00;48.70;;;;;;5017008;28;98574;-75
2022/05/18 12:31:46;;;;;;;8.10;7.32;;;34.20;49.50;;;;;;5034571;28;99909;-75
2022/05/18 12:34:12;;;;;;;7.72;6.95;;;34.30;48.70;;;;;;5032909;28;99076;-75
2022/05/18 12:36:50;;;;;;;9.60;7.95;;;34.20;48.50;;;;;;5035044;28;98494;-75
2022/05/18 12:39:28;;;;;;;6.13;5.53;;;34.40;47.90;;;;;;5017081;28;98500;-75
2022/05/18 12:41:58;;;;;;;8.30;6.20;;;34.50;47.00;;;;;;5033166;28;104172;-75
2022/05/18 12:44:40;;;;;;;8.25;6.03;;;34.50;47.00;;;;;;5016000;28;100923;-75
2022/05/18 12:47:36;;;;;;;7.07;6.38;;;34.60;46.90;;;;;;5035200;28;99168;-75
2022/05/18 12:50:16;;;;;;;8.82;8.05;;;34.50;46.40;;;;;;5034381;28;99318;-75
2022/05/18 12:52:54;;;;;;;6.68;6.18;;;34.30;47.50;;;;;;5034114;28;99337;-75
2022/05/18 12:55:55;;;;;;;6.22;5.50;;;34.30;47.10;;;;;;5015762;28;101521;-75
2022/05/18 12:58:37;;;;;;;7.85;5.30;;;34.10;46.40;;;;;;5033072;28;98459;-75
2022/05/18 13:01:11;;;;;;;6.40;5.45;;;34.00;47.10;;;;;;5034435;28;98577;-75
2022/05/18 13:03:57;;;;;;;7.25;5.38;;;34.00;47.00;;;;;;5016432;28;99420;-75
2022/05/18 13:06:42;;;;;;;5.75;4.93;;;34.00;46.60;;;;;;5034056;28;98925;-75
2022/05/18 13:09:29;;;;;;;5.75;4.35;;;34.00;45.90;;;;;;5034543;28;97829;-75
2022/05/18 13:12:03;;;;;;;6.40;4.45;;;34.00;45.80;;;;;;5034091;28;98484;-75
2022/05/18 13:15:03;;;;;;;6.32;5.82;;;34.00;46.10;;;;;;5032846;28;99421;-75
2022/05/18 13:17:45;;;;;;;6.10;5.13;;;33.90;46.90;;;;;;5032015;28;101582;-75
2022/05/18 13:20:22;;;;;;;7.03;6.32;;;34.10;47.10;;;;;;5032846;28;98462;-75
2022/05/18 13:23:05;;;;;;;6.70;5.90;;;34.00;46.80;;;;;;5015798;28;98639;-75
2022/05/18 13:25:38;;;;;;;4.80;4.30;;;34.00;46.80;;;;;;5014857;28;99220;-75
2022/05/18 13:28:08;;;;;;;3.63;3.33;;;33.80;47.00;;;;;;5033234;28;99440;-75
2022/05/18 13:30:40;;;;;;;4.65;4.22;;;33.80;47.50;;;;;;5034273;28;98507;-75